Portada
METAR-TAF:

METAR-TAF

Aeroports :

Zahedan, Iran

latitud: 29-28N, longitud: 060-53E, altitud: 1370 m

Observació

L'informe es va fer fa 59 minuts, a les 23:00 UTC
Vent 8 kt del Nord
Temperatura 5°C
Humitat 87%
Pressió 1022 hPa
Visibilitat 10 km o més
Escasses núvols a una alçada de 2000 ft

METAR: OIZH 212300Z 01008KT 9999 FEW020 05/03 Q1022 A3019

Hora: 03:29 (23:59 UTC)

Pronòstic

L'informe es va fer fa 29 minuts, a les 23:30 UTC
Pronòstic vàlid del 22 a les 00 UTC al 23 a les 06 UTC
Vent 8 kt del Nord/Nord-Est
Visibilitat: 7000 m
Escasses núvols a una alçada de 3000 ft
Temporalment
l' 22 a les 00 UTC al 22 a les 04 UTC
Visibilitat: 4000 m
boirina

TAF: OIZH 212330Z 2200/2306 02008KT 7000 FEW030 TEMPO 2200/2204 4000 BR

Observacions i pronòstics meteorològics de més de 4000 aeroports (METAR i TAF).

Les estacions disponibles són els punts grocs i vermells al mapa.

Posi el ratolí al punt desitjat per veure el nom de l'estació.

Feu clic per veure les observacions i els pronòstics meteorològics.

Per canviar el mapa: feu clic els botons verds amb una creu de color negre per apropar; al botó verd amb un guió per allunyar la imatge; o en les fletxes verdes per a mapes adjacents.


METAR-TAF: